Time;durP1;ratioP1;P1;durP2;ratioP2;P2;SDS_P1;SDS_P2;PMS_P1;PMS_P2;Temp;Humidity;BMP_temperature;BMP_pressure;BME280_temperature;BME280_humidity;BME280_pressure;Samples;Min_cycle;Max_cycle;Signal;HPM_P1;HPM_P2
2022/07/06 00:00:05;;;;;;;1.98;0.90;;;18.70;78.40;;;;;;6218335;23;20465;-73
2022/07/06 00:02:30;;;;;;;1.58;0.93;;;18.70;78.00;;;;;;6192334;23;20162;-72
2022/07/06 00:04:57;;;;;;;1.38;1.00;;;18.60;77.60;;;;;;6216653;23;20185;-73
2022/07/06 00:07:23;;;;;;;1.50;1.00;;;18.60;78.50;;;;;;6215913;23;20193;-72
2022/07/06 00:09:51;;;;;;;1.52;0.88;;;18.50;78.90;;;;;;6221808;23;20429;-70
2022/07/06 00:12:17;;;;;;;2.35;1.00;;;18.50;78.90;;;;;;6215834;23;20146;-72
2022/07/06 00:14:47;;;;;;;2.92;1.10;;;18.40;79.10;;;;;;6219828;23;20153;-71
2022/07/06 00:17:13;;;;;;;3.05;1.10;;;18.40;79.20;;;;;;6217337;23;20149;-73
2022/07/06 00:19:39;;;;;;;1.40;1.02;;;18.30;79.90;;;;;;6217095;23;20172;-73
2022/07/06 00:22:09;;;;;;;6.85;1.40;;;18.20;79.70;;;;;;6216279;23;20225;-73
2022/07/06 00:24:35;;;;;;;3.00;1.20;;;18.20;81.20;;;;;;6219299;23;20177;-73
2022/07/06 00:27:00;;;;;;;1.85;0.98;;;18.10;80.70;;;;;;6218446;23;20219;-72
2022/07/06 00:29:30;;;;;;;2.55;1.17;;;18.10;80.40;;;;;;6215996;23;20153;-73
2022/07/06 00:31:58;;;;;;;2.50;1.15;;;18.00;80.90;;;;;;6217001;23;20149;-72
2022/07/06 00:34:23;;;;;;;1.90;0.93;;;18.00;80.40;;;;;;6214723;23;20181;-73
2022/07/06 00:36:49;;;;;;;1.48;1.10;;;17.90;80.60;;;;;;6216654;23;20238;-73
2022/07/06 00:39:18;;;;;;;1.48;1.00;;;17.90;80.40;;;;;;6213888;23;20157;-71
2022/07/06 00:41:44;;;;;;;1.40;1.00;;;17.80;80.00;;;;;;6213450;23;20267;-72
2022/07/06 00:44:10;;;;;;;3.10;1.42;;;17.80;80.20;;;;;;6215010;23;20264;-71
2022/07/06 00:46:36;;;;;;;1.85;1.25;;;17.70;80.50;;;;;;6217663;23;20397;-72
2022/07/06 00:49:01;;;;;;;1.60;1.15;;;17.70;80.70;;;;;;6214649;23;20236;-73
2022/07/06 00:51:35;;;;;;;2.80;1.27;;;17.60;80.60;;;;;;6215084;23;20185;-69
2022/07/06 00:54:04;;;;;;;2.28;1.40;;;17.60;81.70;;;;;;6216478;23;20149;-70
2022/07/06 00:56:31;;;;;;;3.47;1.40;;;17.50;81.20;;;;;;6221350;23;20257;-72
2022/07/06 00:58:58;;;;;;;1.48;1.02;;;17.50;81.50;;;;;;6216324;23;20157;-72
2022/07/06 01:01:24;;;;;;;4.20;1.10;;;17.40;80.80;;;;;;6219134;23;20161;-70
2022/07/06 01:03:49;;;;;;;2.67;1.15;;;17.40;80.90;;;;;;6220722;23;20300;-72
2022/07/06 01:06:18;;;;;;;1.95;1.05;;;17.30;80.70;;;;;;6213670;23;20168;-72
2022/07/06 01:08:43;;;;;;;1.60;1.00;;;17.30;80.40;;;;;;6213832;23;20154;-72
2022/07/06 01:11:10;;;;;;;2.33;1.20;;;17.20;80.70;;;;;;6213362;23;20149;-72
2022/07/06 01:13:36;;;;;;;2.40;1.17;;;17.20;81.10;;;;;;6221157;23;20157;-70
2022/07/06 01:16:01;;;;;;;1.35;1.00;;;17.10;80.80;;;;;;6214110;23;20157;-73
2022/07/06 01:18:27;;;;;;;2.88;1.42;;;17.10;80.80;;;;;;6212488;23;20181;-71
2022/07/06 01:21:14;;;;;;;2.30;1.30;;;17.10;81.50;;;;;;6218264;23;20154;-71
2022/07/06 01:23:45;;;;;;;3.58;1.50;;;17.00;82.90;;;;;;6216260;23;20204;-72
2022/07/06 01:26:20;;;;;;;2.92;1.30;;;17.00;82.30;;;;;;6214429;23;20205;-71
2022/07/06 01:28:48;;;;;;;2.17;1.40;;;16.90;82.40;;;;;;6212402;23;20202;-73
2022/07/06 01:31:16;;;;;;;2.60;1.45;;;16.90;83.20;;;;;;6215325;23;20154;-73
2022/07/06 01:33:46;;;;;;;2.08;1.20;;;16.80;83.10;;;;;;6213032;23;20181;-72
2022/07/06 01:36:12;;;;;;;1.90;1.30;;;16.80;83.40;;;;;;6187949;23;20180;-72
2022/07/06 01:38:51;;;;;;;2.65;1.30;;;16.70;83.60;;;;;;6187588;23;20149;-73
2022/07/06 01:41:23;;;;;;;4.15;1.30;;;16.70;84.50;;;;;;6187445;23;20150;-73
2022/07/06 01:43:49;;;;;;;1.88;1.42;;;16.60;84.70;;;;;;6187646;23;20172;-72
2022/07/06 01:46:19;;;;;;;3.97;1.30;;;16.60;84.70;;;;;;6187834;23;20150;-73
2022/07/06 01:48:44;;;;;;;3.85;1.50;;;16.50;85.00;;;;;;6187835;23;20145;-72
2022/07/06 01:51:13;;;;;;;2.95;1.40;;;16.50;85.40;;;;;;6188801;23;20208;-73
2022/07/06 01:53:38;;;;;;;3.97;1.30;;;16.50;86.00;;;;;;6189725;23;20180;-72
2022/07/06 01:56:05;;;;;;;2.63;1.20;;;16.40;85.80;;;;;;6189181;23;20153;-71
2022/07/06 01:58:30;;;;;;;2.67;1.70;;;16.40;85.80;;;;;;6189492;23;20180;-72
2022/07/06 02:00:58;;;;;;;5.88;1.30;;;16.30;87.20;;;;;;6189966;23;20154;-73
2022/07/06 02:03:23;;;;;;;2.05;1.40;;;16.30;87.30;;;;;;6189962;23;20177;-73
2022/07/06 02:05:51;;;;;;;2.50;1.30;;;16.30;86.90;;;;;;6189739;23;20227;-73
2022/07/06 02:08:19;;;;;;;4.03;1.50;;;16.20;87.20;;;;;;6190440;23;20181;-70
2022/07/06 02:10:45;;;;;;;2.53;1.30;;;16.20;87.40;;;;;;6190115;23;20315;-73
2022/07/06 02:13:10;;;;;;;2.63;1.25;;;16.10;88.30;;;;;;6189129;23;20149;-73
2022/07/06 02:15:36;;;;;;;2.08;1.20;;;16.10;88.20;;;;;;6191370;23;20330;-71
2022/07/06 02:18:02;;;;;;;2.50;1.48;;;16.10;87.90;;;;;;6191602;23;20154;-71
2022/07/06 02:20:30;;;;;;;2.10;1.17;;;16.10;89.30;;;;;;6189293;23;20239;-72
2022/07/06 02:22:58;;;;;;;1.48;1.08;;;16.10;89.60;;;;;;6189246;23;20180;-71
2022/07/06 02:25:24;;;;;;;3.38;1.30;;;16.00;90.00;;;;;;6195457;23;20150;-71
2022/07/06 02:27:49;;;;;;;1.90;1.33;;;16.00;88.80;;;;;;6192123;23;20189;-68
2022/07/06 02:30:18;;;;;;;1.70;1.30;;;16.00;88.90;;;;;;6190236;23;20181;-70
2022/07/06 02:32:43;;;;;;;2.17;1.52;;;16.00;89.70;;;;;;6190222;23;20160;-71
2022/07/06 02:35:09;;;;;;;2.65;1.30;;;16.00;89.00;;;;;;6207847;23;20293;-71
2022/07/06 02:37:37;;;;;;;3.38;1.38;;;16.00;89.10;;;;;;6214548;23;20228;-71
2022/07/06 02:40:03;;;;;;;3.35;1.40;;;16.00;89.70;;;;;;6214698;23;20161;-72
2022/07/06 02:42:34;;;;;;;3.08;1.30;;;16.00;89.80;;;;;;6223651;23;20179;-70
2022/07/06 02:45:02;;;;;;;2.97;1.50;;;16.00;90.00;;;;;;6215073;23;20299;-71
2022/07/06 02:47:27;;;;;;;2.67;1.50;;;15.90;90.30;;;;;;6214019;23;20192;-72
2022/07/06 02:49:54;;;;;;;4.32;1.50;;;15.90;90.00;;;;;;6217482;23;20184;-71
2022/07/06 02:52:19;;;;;;;3.97;1.65;;;15.90;90.40;;;;;;6219297;23;20153;-72
2022/07/06 02:54:46;;;;;;;1.98;1.33;;;15.90;90.70;;;;;;6218602;23;20198;-72
2022/07/06 02:57:14;;;;;;;3.15;1.30;;;15.90;90.30;;;;;;6218975;23;20185;-72
2022/07/06 02:59:39;;;;;;;2.38;1.50;;;15.80;90.20;;;;;;6214850;23;20170;-72
2022/07/06 03:02:07;;;;;;;3.17;1.30;;;15.80;90.30;;;;;;6220521;23;20316;-72
2022/07/06 03:04:36;;;;;;;3.85;1.63;;;15.80;90.60;;;;;;6226416;23;20487;-72
2022/07/06 03:07:04;;;;;;;1.58;1.30;;;15.80;90.60;;;;;;6214026;23;20185;-71
2022/07/06 03:09:29;;;;;;;2.30;1.40;;;15.80;90.60;;;;;;6214864;23;20153;-72
2022/07/06 03:11:58;;;;;;;4.15;1.30;;;15.70;90.70;;;;;;6214290;23;20165;-73
2022/07/06 03:14:25;;;;;;;2.15;1.27;;;15.70;91.00;;;;;;6214015;23;20318;-73
2022/07/06 03:16:53;;;;;;;1.85;1.40;;;15.60;90.60;;;;;;6213602;23;20165;-72
2022/07/06 03:19:19;;;;;;;1.92;1.23;;;15.60;90.70;;;;;;6213432;23;20221;-73
2022/07/06 03:21:47;;;;;;;2.25;1.50;;;15.50;90.60;;;;;;6213839;23;20153;-73
2022/07/06 03:24:15;;;;;;;3.75;1.67;;;15.40;91.20;;;;;;6213517;23;20176;-73
2022/07/06 03:26:43;;;;;;;2.33;1.40;;;15.40;91.30;;;;;;6213636;23;20262;-73
2022/07/06 03:29:13;;;;;;;3.08;1.50;;;15.40;91.80;;;;;;6213648;23;20495;-73
2022/07/06 03:31:39;;;;;;;5.30;1.80;;;15.30;91.60;;;;;;6213271;23;20173;-72
2022/07/06 03:34:09;;;;;;;3.88;1.50;;;15.20;91.70;;;;;;6214109;23;20255;-73
2022/07/06 03:36:35;;;;;;;2.25;1.35;;;15.20;92.10;;;;;;6214075;23;20153;-69
2022/07/06 03:39:00;;;;;;;5.53;1.50;;;15.20;92.10;;;;;;6214101;23;20161;-72
2022/07/06 03:41:26;;;;;;;1.85;1.55;;;15.10;92.20;;;;;;6213930;23;20455;-74
2022/07/06 03:43:52;;;;;;;2.03;1.50;;;15.10;92.30;;;;;;6215238;23;20318;-71
2022/07/06 03:46:17;;;;;;;3.15;1.60;;;15.00;92.40;;;;;;6215473;23;20188;-73
2022/07/06 03:48:43;;;;;;;2.30;1.25;;;15.00;92.40;;;;;;6214594;23;20303;-72
2022/07/06 03:51:11;;;;;;;2.47;1.20;;;15.00;92.50;;;;;;6215055;23;20196;-70
2022/07/06 03:53:37;;;;;;;4.40;1.30;;;15.00;92.80;;;;;;6215335;23;20157;-72
2022/07/06 03:58:49;;;;;;;19.30;14.15;;;15.00;92.50;;;;;;6217462;23;20212;-73
2022/07/06 04:01:14;;;;;;;5.72;5.03;;;15.00;92.40;;;;;;6217780;23;20176;-73
2022/07/06 04:03:40;;;;;;;5.45;3.25;;;15.00;92.50;;;;;;6213973;23;20178;-69
2022/07/06 04:06:06;;;;;;;3.92;2.72;;;15.00;92.50;;;;;;6222350;23;20161;-72
2022/07/06 04:08:34;;;;;;;3.42;2.10;;;15.10;92.50;;;;;;6217621;23;20193;-72
2022/07/06 04:11:02;;;;;;;3.65;1.67;;;15.10;92.70;;;;;;6214518;23;20224;-72
2022/07/06 04:13:27;;;;;;;3.15;1.50;;;15.10;92.70;;;;;;6217219;23;20141;-73
2022/07/06 04:15:56;;;;;;;1.77;1.20;;;15.20;92.60;;;;;;6218588;23;20180;-72
2022/07/06 04:18:21;;;;;;;1.65;1.40;;;15.20;92.80;;;;;;6217082;23;20157;-73
2022/07/06 04:20:50;;;;;;;2.42;1.20;;;15.20;92.60;;;;;;6215310;23;20165;-72
2022/07/06 04:23:15;;;;;;;2.03;1.45;;;15.20;92.70;;;;;;6218475;23;20157;-73
2022/07/06 04:25:43;;;;;;;3.53;1.40;;;15.20;92.60;;;;;;6218337;23;20220;-72
2022/07/06 04:28:09;;;;;;;1.67;1.13;;;15.20;92.60;;;;;;6215697;23;20263;-72
2022/07/06 04:30:35;;;;;;;2.75;1.30;;;15.30;92.60;;;;;;6216884;23;20192;-72
2022/07/06 04:33:01;;;;;;;2.03;1.20;;;15.30;92.70;;;;;;6223085;23;20157;-71
2022/07/06 04:35:26;;;;;;;1.98;1.20;;;15.30;92.60;;;;;;6221206;23;20211;-69
2022/07/06 04:37:52;;;;;;;2.17;1.13;;;15.30;92.60;;;;;;6217791;23;20236;-71
2022/07/06 04:40:20;;;;;;;1.67;1.20;;;15.30;92.70;;;;;;6219205;23;20153;-71
2022/07/06 04:42:48;;;;;;;2.22;1.17;;;15.30;92.80;;;;;;6220178;23;20231;-73
2022/07/06 04:45:14;;;;;;;1.92;1.23;;;15.30;92.80;;;;;;6217019;23;20176;-72
2022/07/06 04:47:40;;;;;;;2.00;1.45;;;15.30;92.80;;;;;;6217393;23;20211;-72
2022/07/06 04:50:06;;;;;;;3.25;1.40;;;15.40;92.90;;;;;;6216921;23;20244;-73
2022/07/06 04:52:32;;;;;;;1.67;1.35;;;15.40;93.00;;;;;;6218484;23;20181;-73
2022/07/06 04:54:58;;;;;;;2.55;1.33;;;15.40;93.10;;;;;;6215001;23;20160;-73
2022/07/06 04:57:25;;;;;;;1.77;1.40;;;15.40;93.20;;;;;;6218657;23;20188;-73
2022/07/06 04:59:52;;;;;;;2.22;1.50;;;15.40;93.30;;;;;;6215463;23;20162;-72
2022/07/06 05:02:17;;;;;;;3.67;1.80;;;15.50;93.60;;;;;;6216279;23;20188;-72
2022/07/06 05:04:43;;;;;;;3.03;1.70;;;15.60;94.00;;;;;;6218137;23;20153;-73
2022/07/06 05:07:09;;;;;;;4.47;1.50;;;15.60;93.80;;;;;;6214255;23;20185;-73
2022/07/06 05:09:34;;;;;;;2.13;1.50;;;15.60;93.90;;;;;;6215061;23;20261;-73
2022/07/06 05:12:02;;;;;;;3.63;1.50;;;15.70;94.40;;;;;;6215007;23;20153;-73
2022/07/06 05:14:30;;;;;;;2.70;1.60;;;15.70;94.20;;;;;;6223843;23;20189;-73
2022/07/06 05:16:56;;;;;;;2.10;1.45;;;15.80;95.00;;;;;;6216222;23;20203;-73
2022/07/06 05:19:22;;;;;;;3.53;1.60;;;15.80;94.90;;;;;;6221866;23;20177;-71
2022/07/06 05:21:47;;;;;;;3.55;1.52;;;15.90;94.90;;;;;;6217965;23;20154;-72
2022/07/06 05:24:15;;;;;;;2.10;1.70;;;15.90;95.10;;;;;;6219075;23;20157;-71
2022/07/06 05:26:42;;;;;;;3.63;2.00;;;16.00;95.10;;;;;;6214719;23;20245;-72
2022/07/06 05:29:07;;;;;;;4.70;1.80;;;16.00;95.00;;;;;;6220451;23;20181;-72
2022/07/06 05:31:33;;;;;;;4.15;1.98;;;16.00;94.80;;;;;;6220393;23;20149;-71
2022/07/06 05:34:01;;;;;;;2.35;1.58;;;16.00;95.30;;;;;;6216470;23;20201;-70
2022/07/06 05:36:26;;;;;;;2.92;1.55;;;16.00;95.20;;;;;;6195138;23;20371;-72
2022/07/06 05:38:52;;;;;;;3.17;1.73;;;16.10;95.00;;;;;;6192429;23;20372;-71
2022/07/06 05:41:18;;;;;;;3.40;1.50;;;16.10;95.20;;;;;;6195819;23;20160;-73
2022/07/06 05:43:43;;;;;;;4.32;1.83;;;16.10;95.20;;;;;;6189976;23;20176;-70
2022/07/06 05:46:09;;;;;;;1.77;1.40;;;16.10;95.30;;;;;;6190233;23;20192;-73
2022/07/06 05:51:19;;;;;;;3.33;1.55;;;16.20;95.50;;;;;;6219417;23;20199;-72
2022/07/06 05:53:47;;;;;;;3.88;1.70;;;16.20;95.40;;;;;;6219545;23;20184;-72
2022/07/06 05:56:15;;;;;;;4.13;1.50;;;16.20;95.40;;;;;;6191757;23;20231;-72
2022/07/06 05:58:41;;;;;;;4.82;1.50;;;16.20;95.60;;;;;;6191501;23;20244;-72
2022/07/06 06:01:07;;;;;;;2.47;1.50;;;16.20;95.50;;;;;;6193596;23;20180;-72
2022/07/06 06:03:35;;;;;;;3.35;1.40;;;16.30;95.60;;;;;;6190823;23;20253;-71
2022/07/06 06:06:03;;;;;;;2.70;1.70;;;16.30;95.70;;;;;;6193467;23;20165;-72
2022/07/06 06:08:29;;;;;;;1.95;1.50;;;16.30;95.80;;;;;;6194155;23;20180;-72
2022/07/06 06:10:55;;;;;;;2.83;1.23;;;16.30;96.00;;;;;;6190702;23;20149;-70
2022/07/06 06:13:23;;;;;;;3.55;1.75;;;16.40;95.90;;;;;;6190939;23;20216;-73
2022/07/06 06:15:48;;;;;;;3.70;1.80;;;16.40;96.30;;;;;;6189136;23;20159;-73
2022/07/06 06:18:18;;;;;;;5.68;1.90;;;16.40;96.10;;;;;;6190789;23;20183;-73
2022/07/06 06:20:45;;;;;;;3.83;1.70;;;16.50;96.60;;;;;;6193539;23;20169;-73
2022/07/06 06:23:10;;;;;;;3.83;1.83;;;16.50;96.30;;;;;;6190812;23;20168;-72
2022/07/06 06:25:39;;;;;;;4.97;2.00;;;16.60;96.60;;;;;;6189143;23;20161;-72
2022/07/06 06:28:09;;;;;;;2.55;2.08;;;16.60;96.70;;;;;;6188745;23;20181;-73
2022/07/06 06:30:36;;;;;;;4.78;2.10;;;16.60;96.80;;;;;;6188702;23;20177;-71
2022/07/06 06:33:10;;;;;;;4.30;1.75;;;16.70;97.10;;;;;;6189214;23;20153;-72
2022/07/06 06:35:37;;;;;;;2.78;1.70;;;16.70;96.90;;;;;;6208837;23;20200;-72
2022/07/06 06:38:05;;;;;;;4.75;1.88;;;16.70;96.50;;;;;;6215190;23;20164;-72
2022/07/06 06:40:31;;;;;;;4.93;1.83;;;16.70;96.60;;;;;;6214079;23;20211;-72
2022/07/06 06:42:56;;;;;;;5.85;1.80;;;16.80;96.80;;;;;;6214525;23;20158;-72
2022/07/06 06:45:27;;;;;;;3.85;1.60;;;16.80;96.90;;;;;;6214674;23;20172;-70
2022/07/06 06:47:53;;;;;;;9.07;1.67;;;16.80;96.90;;;;;;6214536;23;20177;-73
2022/07/06 06:50:19;;;;;;;4.25;2.30;;;16.80;96.80;;;;;;6214594;23;20153;-71
2022/07/06 06:52:45;;;;;;;1.80;1.40;;;16.90;97.40;;;;;;6214707;23;20177;-69
2022/07/06 06:55:13;;;;;;;4.47;2.38;;;16.90;97.10;;;;;;6214738;23;20160;-71
2022/07/06 06:57:39;;;;;;;3.72;1.67;;;17.00;97.70;;;;;;6217685;23;20188;-69
2022/07/06 07:00:05;;;;;;;6.22;2.88;;;17.10;97.70;;;;;;6216389;23;20161;-70
2022/07/06 07:02:33;;;;;;;4.47;1.80;;;17.10;97.70;;;;;;6219827;23;20261;-72
2022/07/06 07:04:59;;;;;;;4.30;2.03;;;17.20;97.60;;;;;;6217821;23;20252;-71
2022/07/06 07:07:25;;;;;;;3.45;1.70;;;17.20;97.80;;;;;;6214088;23;20177;-71
2022/07/06 07:09:57;;;;;;;3.42;1.63;;;17.30;97.60;;;;;;6221552;23;20165;-72
2022/07/06 07:12:23;;;;;;;2.55;1.63;;;17.40;97.60;;;;;;6221079;23;20518;-70
2022/07/06 07:14:49;;;;;;;7.35;1.90;;;17.40;97.50;;;;;;6217792;23;20275;-73
2022/07/06 07:17:17;;;;;;;3.25;1.83;;;17.50;97.60;;;;;;6215195;23;20247;-71
2022/07/06 07:19:43;;;;;;;6.32;1.92;;;17.60;97.60;;;;;;6217206;23;20156;-73
2022/07/06 07:22:09;;;;;;;3.92;1.30;;;17.70;97.60;;;;;;6214196;23;20286;-72
2022/07/06 07:24:34;;;;;;;4.70;1.52;;;17.80;97.40;;;;;;6213706;23;20177;-72
2022/07/06 07:27:03;;;;;;;5.35;1.20;;;17.80;97.10;;;;;;6214189;23;20286;-72
2022/07/06 07:29:28;;;;;;;2.53;1.20;;;17.90;97.00;;;;;;6213166;23;20248;-69
2022/07/06 07:31:57;;;;;;;2.33;1.02;;;17.90;96.90;;;;;;6213713;23;20184;-73
2022/07/06 07:34:22;;;;;;;2.72;1.15;;;17.90;96.80;;;;;;6214054;23;20180;-73
2022/07/06 07:36:48;;;;;;;2.28;0.90;;;18.00;96.70;;;;;;6213539;23;20158;-72
2022/07/06 07:39:16;;;;;;;2.47;0.70;;;18.00;96.30;;;;;;6213013;23;20161;-73
2022/07/06 07:41:42;;;;;;;2.50;0.85;;;18.10;96.20;;;;;;6213189;23;20271;-71
2022/07/06 07:44:11;;;;;;;4.43;1.13;;;18.10;96.20;;;;;;6213173;23;20247;-72
2022/07/06 07:46:36;;;;;;;2.35;1.00;;;18.20;96.10;;;;;;6214243;23;20153;-73
2022/07/06 07:49:04;;;;;;;2.42;0.80;;;18.20;96.10;;;;;;6213921;23;20160;-72
2022/07/06 07:51:33;;;;;;;1.33;0.75;;;18.30;95.70;;;;;;6215767;23;20204;-73
2022/07/06 07:54:00;;;;;;;2.90;0.80;;;18.30;95.50;;;;;;6215402;23;20157;-72
2022/07/06 07:56:26;;;;;;;2.50;0.90;;;18.40;95.70;;;;;;6215663;23;20149;-71
2022/07/06 07:58:52;;;;;;;3.10;0.90;;;18.50;95.70;;;;;;6215925;23;20159;-74
2022/07/06 08:01:17;;;;;;;1.65;0.95;;;18.60;95.60;;;;;;6215346;23;20159;-74
2022/07/06 08:03:43;;;;;;;2.15;0.90;;;18.70;95.50;;;;;;6218340;23;20153;-73
2022/07/06 08:06:09;;;;;;;2.92;1.00;;;18.80;95.40;;;;;;6215436;23;20160;-73
2022/07/06 08:08:35;;;;;;;1.67;1.02;;;18.80;95.30;;;;;;6215215;23;20192;-72
2022/07/06 08:11:00;;;;;;;1.70;0.80;;;18.90;95.30;;;;;;6217955;23;20287;-70
2022/07/06 08:13:26;;;;;;;2.38;0.98;;;18.90;94.90;;;;;;6219264;23;20293;-73
2022/07/06 08:15:52;;;;;;;1.10;1.00;;;19.00;94.80;;;;;;6215801;23;20149;-72
2022/07/06 08:18:17;;;;;;;2.13;0.82;;;19.00;94.80;;;;;;6215685;23;20153;-72
2022/07/06 08:20:43;;;;;;;2.33;1.00;;;19.00;94.40;;;;;;6215359;23;20185;-73
2022/07/06 08:23:11;;;;;;;1.65;0.80;;;19.10;94.50;;;;;;6215284;23;20164;-70
2022/07/06 08:25:37;;;;;;;2.63;0.95;;;19.10;94.40;;;;;;6214765;23;20287;-72
2022/07/06 08:28:05;;;;;;;2.35;0.82;;;19.10;94.50;;;;;;6215331;23;20231;-73
2022/07/06 08:30:34;;;;;;;3.92;0.93;;;19.10;94.50;;;;;;6215773;23;20154;-73
2022/07/06 08:33:00;;;;;;;1.17;0.70;;;19.10;93.90;;;;;;6215843;23;20149;-72
2022/07/06 08:35:28;;;;;;;1.45;0.60;;;19.20;93.60;;;;;;6215601;23;20199;-72
2022/07/06 08:37:53;;;;;;;2.35;1.20;;;19.10;93.30;;;;;;6216501;23;20233;-72
2022/07/06 08:40:22;;;;;;;3.63;0.90;;;19.20;93.40;;;;;;6216088;23;20184;-72
2022/07/06 08:42:53;;;;;;;2.30;1.05;;;19.20;93.50;;;;;;6215317;23;20149;-72
2022/07/06 08:45:24;;;;;;;1.25;0.68;;;19.20;93.50;;;;;;6215569;23;20240;-73
2022/07/06 08:47:50;;;;;;;2.15;0.90;;;19.20;93.70;;;;;;6216939;23;20179;-73
2022/07/06 08:50:16;;;;;;;1.50;0.80;;;19.30;93.80;;;;;;6216806;23;20160;-72
2022/07/06 08:52:42;;;;;;;1.45;0.80;;;19.40;93.80;;;;;;6219599;23;20173;-73
2022/07/06 08:55:14;;;;;;;1.75;0.75;;;19.50;93.90;;;;;;6220456;23;20241;-72
2022/07/06 08:57:43;;;;;;;1.63;0.95;;;19.70;93.50;;;;;;6220766;23;20153;-72
2022/07/06 09:00:09;;;;;;;2.03;0.80;;;19.80;93.90;;;;;;6217317;23;20154;-73
2022/07/06 09:02:36;;;;;;;2.05;0.73;;;20.00;93.80;;;;;;6222817;23;20161;-73
2022/07/06 09:05:03;;;;;;;1.38;0.80;;;20.10;93.60;;;;;;6218822;23;20164;-72
2022/07/06 09:07:30;;;;;;;2.10;0.80;;;20.20;93.40;;;;;;6217325;23;20205;-71
2022/07/06 09:10:01;;;;;;;0.90;0.63;;;20.20;93.00;;;;;;6228488;23;20192;-73
2022/07/06 09:12:29;;;;;;;2.78;0.75;;;20.20;92.30;;;;;;6218015;23;20215;-73
2022/07/06 09:14:59;;;;;;;2.38;0.90;;;20.20;92.20;;;;;;6223580;23;20146;-73
2022/07/06 09:17:32;;;;;;;2.00;0.80;;;20.20;92.00;;;;;;6219324;23;20156;-74
2022/07/06 09:19:57;;;;;;;5.05;0.90;;;20.10;92.00;;;;;;6223091;23;20181;-68
2022/07/06 09:22:32;;;;;;;1.83;0.57;;;20.10;91.90;;;;;;6228405;23;20180;-68
2022/07/06 09:25:07;;;;;;;0.85;0.52;;;20.10;91.60;;;;;;6224682;23;20161;-72
2022/07/06 09:27:47;;;;;;;2.15;0.70;;;20.20;91.80;;;;;;6216923;23;20307;-72
2022/07/06 09:30:14;;;;;;;1.92;0.90;;;20.20;92.10;;;;;;6219941;23;20157;-69
2022/07/06 09:32:40;;;;;;;1.85;0.88;;;20.20;91.80;;;;;;6220770;23;20153;-73
2022/07/06 09:35:18;;;;;;;2.10;1.05;;;20.20;92.00;;;;;;6217125;23;20153;-69
2022/07/06 09:37:47;;;;;;;3.25;1.00;;;20.30;92.00;;;;;;6218316;23;20243;-71
2022/07/06 09:40:18;;;;;;;2.28;1.08;;;20.30;91.90;;;;;;6220214;23;20220;-72
2022/07/06 09:42:46;;;;;;;1.67;0.90;;;20.40;91.20;;;;;;6225110;23;20424;-73
2022/07/06 09:45:12;;;;;;;3.28;0.70;;;20.40;91.30;;;;;;6225456;23;20149;-71
2022/07/06 09:47:39;;;;;;;0.93;0.70;;;20.50;91.40;;;;;;6216847;23;20183;-72
2022/07/06 09:50:09;;;;;;;3.30;0.88;;;20.50;91.40;;;;;;6229478;23;20149;-73
2022/07/06 09:52:35;;;;;;;1.48;0.70;;;20.50;90.90;;;;;;6226622;23;20283;-72
2022/07/06 09:55:13;;;;;;;3.83;0.98;;;20.50;90.90;;;;;;6218865;23;20196;-72
2022/07/06 09:57:39;;;;;;;1.70;0.80;;;20.60;90.90;;;;;;6222761;23;20164;-72
2022/07/06 10:00:11;;;;;;;1.75;0.80;;;20.60;91.00;;;;;;6219902;23;20164;-72
2022/07/06 10:02:37;;;;;;;1.40;1.00;;;20.60;90.80;;;;;;6215513;23;20177;-71
2022/07/06 10:05:05;;;;;;;1.60;0.98;;;20.70;91.10;;;;;;6214309;23;20153;-71
2022/07/06 10:07:33;;;;;;;1.98;0.73;;;20.80;90.70;;;;;;6216531;23;20181;-73
2022/07/06 10:10:02;;;;;;;1.83;0.80;;;20.80;90.40;;;;;;6215119;23;20195;-73
2022/07/06 10:12:28;;;;;;;2.03;1.00;;;20.80;90.50;;;;;;6215116;23;20189;-73
2022/07/06 10:14:57;;;;;;;1.38;0.80;;;20.80;90.00;;;;;;6218014;23;20153;-72
2022/07/06 10:17:23;;;;;;;1.48;0.80;;;20.90;89.80;;;;;;6221388;23;20153;-71
2022/07/06 10:19:53;;;;;;;2.30;1.00;;;20.90;90.20;;;;;;6218620;23;20261;-72
2022/07/06 10:22:19;;;;;;;1.33;0.70;;;20.90;90.40;;;;;;6217397;23;20268;-72
2022/07/06 10:24:49;;;;;;;1.83;0.80;;;20.90;90.00;;;;;;6215240;23;20153;-71
2022/07/06 10:27:14;;;;;;;3.58;1.15;;;20.90;89.60;;;;;;6215214;23;20185;-74
2022/07/06 10:29:45;;;;;;;2.15;0.70;;;20.90;89.90;;;;;;6216779;23;20205;-74
2022/07/06 10:32:13;;;;;;;1.33;0.90;;;20.90;90.00;;;;;;6215191;23;20172;-72
2022/07/06 10:34:41;;;;;;;2.10;1.10;;;20.90;89.80;;;;;;6214354;23;20177;-72
2022/07/06 10:37:25;;;;;;;3.45;1.08;;;20.90;89.30;;;;;;6219975;23;20240;-70
2022/07/06 10:42:39;;;;;;;1.77;1.00;;;21.10;89.90;;;;;;6214865;23;20144;-73
2022/07/06 10:45:05;;;;;;;1.23;0.80;;;21.20;86.80;;;;;;6214315;23;20291;-73
2022/07/06 10:47:34;;;;;;;1.35;0.80;;;21.30;87.50;;;;;;6213158;23;20223;-73
2022/07/06 10:50:04;;;;;;;2.85;0.98;;;21.40;87.50;;;;;;6213224;23;20160;-71
2022/07/06 10:52:58;;;;;;;4.07;0.85;;;21.40;87.90;;;;;;6213442;23;20145;-73
2022/07/06 10:55:31;;;;;;;2.03;0.65;;;21.60;85.70;;;;;;6213533;23;20149;-73
2022/07/06 10:57:57;;;;;;;2.47;0.70;;;21.60;86.60;;;;;;6213677;23;20153;-72
2022/07/06 11:00:22;;;;;;;0.98;0.55;;;21.70;86.20;;;;;;6213703;23;20217;-74
2022/07/06 11:02:50;;;;;;;1.77;0.88;;;21.80;85.20;;;;;;6213669;23;20157;-72
2022/07/06 11:05:44;;;;;;;1.40;0.70;;;21.80;85.80;;;;;;6213476;23;20192;-70
2022/07/06 11:08:10;;;;;;;2.47;0.75;;;21.90;83.40;;;;;;6213557;23;20189;-70
2022/07/06 11:10:49;;;;;;;1.85;0.93;;;22.00;86.00;;;;;;6213299;23;20153;-73
2022/07/06 11:13:30;;;;;;;0.93;0.70;;;22.20;84.20;;;;;;6213394;23;20178;-73
2022/07/06 11:16:06;;;;;;;1.58;0.90;;;22.20;80.70;;;;;;6213105;23;20149;-73
2022/07/06 11:18:48;;;;;;;2.60;1.20;;;22.40;83.00;;;;;;6214043;23;20270;-72
2022/07/06 11:21:22;;;;;;;2.58;1.20;;;22.40;81.80;;;;;;6213698;23;20145;-74
2022/07/06 11:23:50;;;;;;;1.05;0.80;;;22.50;82.70;;;;;;6213766;23;20181;-75
2022/07/06 11:26:17;;;;;;;1.85;0.70;;;22.60;83.50;;;;;;6213169;23;20154;-73
2022/07/06 11:28:48;;;;;;;1.63;0.73;;;22.70;82.90;;;;;;6214546;23;20181;-72
2022/07/06 11:31:15;;;;;;;0.90;0.70;;;22.70;82.00;;;;;;6213945;23;20145;-74
2022/07/06 11:33:40;;;;;;;3.28;0.98;;;22.90;82.60;;;;;;6213192;23;20160;-72
2022/07/06 11:36:12;;;;;;;2.03;1.05;;;23.00;80.10;;;;;;6188696;23;20552;-73
2022/07/06 11:38:41;;;;;;;1.30;0.80;;;23.10;78.80;;;;;;6188850;23;20153;-72
2022/07/06 11:41:07;;;;;;;4.43;1.00;;;23.20;80.60;;;;;;6188209;23;20302;-72
2022/07/06 11:43:32;;;;;;;1.25;0.88;;;23.30;80.70;;;;;;6193195;23;20164;-71
2022/07/06 11:45:58;;;;;;;2.70;1.00;;;23.40;80.40;;;;;;6187854;23;20153;-72
2022/07/06 11:48:24;;;;;;;1.58;0.77;;;23.60;80.70;;;;;;6192400;23;20212;-67
2022/07/06 11:51:03;;;;;;;1.77;1.00;;;23.80;81.60;;;;;;6193277;23;20161;-70
2022/07/06 11:53:31;;;;;;;1.48;0.93;;;23.90;78.10;;;;;;6200728;23;20149;-72
2022/07/06 11:56:03;;;;;;;2.70;0.80;;;24.00;79.10;;;;;;6194607;23;20193;-73
2022/07/06 11:58:31;;;;;;;1.23;0.80;;;24.00;76.50;;;;;;6198228;23;20235;-69
2022/07/06 12:01:10;;;;;;;2.67;0.75;;;24.00;78.00;;;;;;6192314;23;20180;-72
2022/07/06 12:03:36;;;;;;;1.40;0.82;;;24.10;77.50;;;;;;6195187;23;20252;-73
2022/07/06 12:06:13;;;;;;;0.90;0.70;;;24.10;77.30;;;;;;6188757;23;20161;-73
2022/07/06 12:08:58;;;;;;;1.88;0.50;;;24.10;75.70;;;;;;6188649;23;20231;-73
2022/07/06 12:11:33;;;;;;;1.35;0.88;;;24.00;74.90;;;;;;6188463;23;20161;-74
2022/07/06 12:14:15;;;;;;;1.63;0.85;;;24.00;75.10;;;;;;6188010;23;20202;-70
2022/07/06 12:16:41;;;;;;;2.78;0.93;;;23.90;73.50;;;;;;6188789;23;20200;-73
2022/07/06 12:19:11;;;;;;;1.15;0.70;;;23.80;74.20;;;;;;6188660;23;20150;-73
2022/07/06 12:21:46;;;;;;;1.25;0.68;;;23.70;74.00;;;;;;6188554;23;20149;-73
2022/07/06 12:24:22;;;;;;;1.10;0.70;;;23.70;74.50;;;;;;6188284;23;20172;-74
2022/07/06 12:26:49;;;;;;;0.95;0.60;;;23.80;75.30;;;;;;6188615;23;20153;-72
2022/07/06 12:29:15;;;;;;;2.22;0.90;;;24.00;76.80;;;;;;6188323;23;20150;-72
2022/07/06 12:31:50;;;;;;;1.88;0.95;;;24.20;75.90;;;;;;6215378;23;20157;-72
2022/07/06 12:34:30;;;;;;;2.03;0.65;;;24.30;74.10;;;;;;6190199;23;20311;-72
2022/07/06 12:37:07;;;;;;;4.28;0.80;;;24.30;72.90;;;;;;6214616;23;20240;-73
2022/07/06 12:39:41;;;;;;;1.40;0.60;;;24.20;72.90;;;;;;6215531;23;20486;-72
2022/07/06 12:42:08;;;;;;;2.25;0.65;;;24.10;71.80;;;;;;6217593;23;20157;-68
2022/07/06 12:44:46;;;;;;;1.67;0.55;;;23.90;72.20;;;;;;6216002;23;20145;-71
2022/07/06 12:47:15;;;;;;;0.80;0.55;;;23.70;71.00;;;;;;6217155;23;20168;-73
2022/07/06 12:49:42;;;;;;;1.17;0.68;;;23.60;71.90;;;;;;6218111;23;20153;-71
2022/07/06 12:52:10;;;;;;;2.03;0.70;;;23.50;72.30;;;;;;6219744;23;20184;-71
2022/07/06 12:54:42;;;;;;;2.95;0.88;;;23.50;72.10;;;;;;6223696;23;20248;-71
2022/07/06 12:57:26;;;;;;;2.42;0.90;;;23.50;71.40;;;;;;6219138;23;20248;-72
2022/07/06 12:59:54;;;;;;;2.00;0.80;;;23.40;70.40;;;;;;6215021;23;20145;-71